Time;durP1;ratioP1;P1;durP2;ratioP2;P2;SDS_P1;SDS_P2;PMS_P1;PMS_P2;Temp;Humidity;BMP_temperature;BMP_pressure;BME280_temperature;BME280_humidity;BME280_pressure;Samples;Min_cycle;Max_cycle;Signal;HPM_P1;HPM_P2
2022/03/31 00:01:17;;;;;;;3.37;1.60;;;;;;;;;;5027701;28;20921;-60
2022/03/31 00:03:44;;;;;;;3.93;1.23;;;;;;;;;;5027227;28;20559;-60
2022/03/31 00:06:11;;;;;;;4.70;1.50;;;;;;;;;;5026708;28;20966;-60
2022/03/31 00:08:38;;;;;;;3.93;1.53;;;;;;;;;;5027891;28;20766;-59
2022/03/31 00:11:04;;;;;;;8.00;2.00;;;;;;;;;;5027855;28;20431;-60
2022/03/31 00:13:31;;;;;;;5.87;1.40;;;;;;;;;;5027175;28;20898;-60
2022/03/31 00:15:58;;;;;;;6.07;1.13;;;;;;;;;;5031720;28;20448;-60
2022/03/31 00:18:29;;;;;;;4.43;1.40;;;;;;;;;;5031122;28;20793;-60
2022/03/31 00:34:46;;;;;;;2.10;1.10;;;;;;;;;;5031326;28;20476;-59
2022/03/31 00:37:32;;;;;;;4.90;1.20;;;;;;;;;;5031484;28;20502;-60
2022/03/31 00:40:02;;;;;;;3.50;0.90;;;;;;;;;;5041529;28;20434;-59
2022/03/31 00:42:29;;;;;;;3.50;1.10;;;;;;;;;;5050849;28;20441;-60
2022/03/31 00:44:55;;;;;;;5.97;1.60;;;;;;;;;;5049988;28;20436;-60
2022/03/31 00:47:23;;;;;;;1.03;0.77;;;;;;;;;;5050431;28;20501;-60
2022/03/31 00:49:50;;;;;;;4.50;0.70;;;;;;;;;;5051251;28;20429;-59
2022/03/31 00:52:16;;;;;;;2.03;0.70;;;;;;;;;;5051168;28;20434;-60
2022/03/31 00:54:43;;;;;;;1.17;0.60;;;;;;;;;;5050723;28;20467;-60
2022/03/31 00:57:10;;;;;;;1.07;0.50;;;;;;;;;;5050639;28;20457;-60
2022/03/31 00:59:37;;;;;;;1.40;0.70;;;;;;;;;;5049849;28;20459;-60
2022/03/31 01:02:04;;;;;;;0.70;0.40;;;;;;;;;;5050205;28;20997;-60
2022/03/31 01:37:34;;;;;;;2.50;1.30;;;;;;;;;;5049988;28;20481;-60
2022/03/31 01:40:01;;;;;;;3.83;1.20;;;;;;;;;;5039645;28;20439;-60
2022/03/31 01:42:28;;;;;;;1.40;0.83;;;;;;;;;;5030084;28;21018;-59
2022/03/31 01:44:55;;;;;;;2.17;0.90;;;;;;;;;;5030011;28;21132;-59
2022/03/31 01:47:22;;;;;;;3.00;1.07;;;;;;;;;;5029518;28;20468;-59
2022/03/31 01:49:49;;;;;;;2.50;1.20;;;;;;;;;;5029953;28;20449;-60
2022/03/31 01:52:16;;;;;;;2.50;1.10;;;;;;;;;;5030044;28;20936;-59
2022/03/31 01:54:42;;;;;;;2.20;0.80;;;;;;;;;;5029566;28;20447;-59
2022/03/31 01:57:09;;;;;;;3.60;1.30;;;;;;;;;;5029378;28;20555;-59
2022/03/31 01:59:37;;;;;;;1.40;0.90;;;;;;;;;;5029965;28;20430;-59
2022/03/31 02:02:04;;;;;;;3.87;1.20;;;;;;;;;;5029100;28;20855;-59
2022/03/31 02:04:36;;;;;;;2.33;1.00;;;;;;;;;;5029453;28;20471;-60
2022/03/31 02:07:03;;;;;;;1.57;0.70;;;;;;;;;;5029689;28;21166;-60
2022/03/31 02:09:30;;;;;;;1.53;0.90;;;;;;;;;;5029395;28;20440;-59
2022/03/31 02:11:57;;;;;;;3.17;1.20;;;;;;;;;;5029555;28;20690;-60
2022/03/31 02:14:25;;;;;;;3.57;1.40;;;;;;;;;;5029047;28;21015;-60
2022/03/31 02:17:09;;;;;;;1.63;0.90;;;;;;;;;;5029223;28;20463;-59
2022/03/31 02:19:36;;;;;;;1.40;0.60;;;;;;;;;;5029339;28;20429;-59
2022/03/31 02:22:20;;;;;;;1.60;0.60;;;;;;;;;;5028277;28;20424;-60
2022/03/31 02:24:48;;;;;;;1.70;0.90;;;;;;;;;;5029332;28;20431;-59
2022/03/31 02:27:32;;;;;;;3.57;1.20;;;;;;;;;;5028845;28;20423;-60
2022/03/31 02:29:59;;;;;;;3.17;0.60;;;;;;;;;;5029111;28;20463;-60
2022/03/31 02:32:26;;;;;;;2.00;0.80;;;;;;;;;;5027375;28;20447;-60
2022/03/31 02:34:52;;;;;;;2.17;1.10;;;;;;;;;;5028844;28;20526;-60
2022/03/31 02:37:19;;;;;;;1.90;1.00;;;;;;;;;;5029124;28;20486;-60
2022/03/31 02:39:45;;;;;;;2.77;1.10;;;;;;;;;;5036649;28;20428;-60
2022/03/31 02:42:12;;;;;;;2.17;0.93;;;;;;;;;;5048021;28;20428;-60
2022/03/31 02:44:39;;;;;;;3.17;1.23;;;;;;;;;;5048722;28;20534;-59
2022/03/31 02:47:06;;;;;;;3.67;1.10;;;;;;;;;;5046970;28;20439;-59
2022/03/31 02:49:32;;;;;;;3.77;1.03;;;;;;;;;;5048499;28;20822;-59
2022/03/31 02:52:00;;;;;;;2.77;1.40;;;;;;;;;;5048805;28;20433;-59
2022/03/31 02:57:12;;;;;;;1.83;0.83;;;;;;;;;;5048464;28;20469;-59
2022/03/31 02:59:38;;;;;;;1.23;0.97;;;;;;;;;;5048431;28;20766;-59
2022/03/31 03:02:05;;;;;;;3.40;0.90;;;;;;;;;;5047879;28;20425;-60
2022/03/31 03:04:32;;;;;;;1.63;0.80;;;;;;;;;;5048082;28;20531;-59
2022/03/31 03:06:59;;;;;;;2.03;1.10;;;;;;;;;;5048640;28;20425;-60
2022/03/31 03:09:25;;;;;;;2.63;1.40;;;;;;;;;;5048161;28;20427;-59
2022/03/31 03:11:52;;;;;;;2.17;1.20;;;;;;;;;;5048279;28;20422;-60
2022/03/31 03:14:19;;;;;;;3.57;1.20;;;;;;;;;;5048188;28;20422;-59
2022/03/31 03:16:46;;;;;;;4.50;1.20;;;;;;;;;;5047876;28;21145;-59
2022/03/31 03:19:12;;;;;;;3.37;1.20;;;;;;;;;;5048648;28;20459;-59
2022/03/31 03:21:57;;;;;;;2.10;1.20;;;;;;;;;;5029602;28;20429;-62
2022/03/31 03:24:25;;;;;;;3.00;1.20;;;;;;;;;;5040611;28;20462;-60
2022/03/31 03:26:52;;;;;;;1.90;1.17;;;;;;;;;;5040546;28;20483;-60
2022/03/31 03:29:19;;;;;;;2.37;0.90;;;;;;;;;;5041450;28;20444;-60
2022/03/31 03:31:47;;;;;;;1.73;1.00;;;;;;;;;;5041522;28;20447;-60
2022/03/31 03:34:31;;;;;;;1.17;0.70;;;;;;;;;;5041292;28;20431;-59
2022/03/31 03:36:59;;;;;;;1.20;0.73;;;;;;;;;;5041461;28;21404;-59
2022/03/31 03:39:26;;;;;;;1.53;0.93;;;;;;;;;;5039888;28;20542;-60
2022/03/31 03:41:52;;;;;;;3.17;0.93;;;;;;;;;;5041178;28;20545;-59
2022/03/31 03:44:20;;;;;;;3.77;1.17;;;;;;;;;;5039992;28;20564;-62
2022/03/31 03:47:05;;;;;;;2.60;1.20;;;;;;;;;;5038890;28;20531;-61
2022/03/31 03:49:32;;;;;;;2.50;0.80;;;;;;;;;;5040775;28;20475;-60
2022/03/31 03:51:59;;;;;;;3.43;1.17;;;;;;;;;;5040988;28;21380;-60
2022/03/31 03:54:27;;;;;;;2.47;1.10;;;;;;;;;;5043402;28;20566;-60
2022/03/31 03:56:54;;;;;;;2.30;1.27;;;;;;;;;;5043952;28;20474;-63
2022/03/31 03:59:21;;;;;;;2.13;0.80;;;;;;;;;;5045276;28;20445;-59
2022/03/31 04:01:48;;;;;;;0.93;0.60;;;;;;;;;;5044157;28;20451;-60
2022/03/31 04:04:15;;;;;;;2.97;0.97;;;;;;;;;;5044623;28;20474;-59
2022/03/31 04:06:49;;;;;;;4.13;0.97;;;;;;;;;;5044626;28;20713;-60
2022/03/31 04:09:16;;;;;;;1.00;0.60;;;;;;;;;;5045330;28;20487;-59
2022/03/31 04:11:42;;;;;;;4.97;1.23;;;;;;;;;;5043594;28;20449;-60
2022/03/31 04:14:27;;;;;;;4.67;0.97;;;;;;;;;;5039793;28;20435;-56
2022/03/31 04:16:55;;;;;;;2.00;0.73;;;;;;;;;;5040872;28;20940;-60
2022/03/31 04:19:22;;;;;;;3.17;0.70;;;;;;;;;;5043524;28;21294;-61
2022/03/31 04:21:49;;;;;;;2.90;0.60;;;;;;;;;;5045262;28;20468;-60
2022/03/31 04:24:15;;;;;;;0.67;0.43;;;;;;;;;;5043482;28;20454;-60
2022/03/31 04:26:42;;;;;;;0.80;0.57;;;;;;;;;;5042657;28;20469;-62
2022/03/31 04:29:10;;;;;;;0.87;0.60;;;;;;;;;;5043701;28;20573;-60
2022/03/31 04:31:37;;;;;;;3.97;0.60;;;;;;;;;;5044405;28;21126;-60
2022/03/31 04:34:23;;;;;;;2.20;0.90;;;;;;;;;;5043970;28;20515;-61
2022/03/31 04:36:49;;;;;;;1.87;0.80;;;;;;;;;;5043647;28;20968;-60
2022/03/31 04:39:34;;;;;;;1.73;0.80;;;;;;;;;;5044317;28;21667;-60
2022/03/31 04:42:02;;;;;;;4.73;0.83;;;;;;;;;;5039945;28;20505;-61
2022/03/31 04:44:33;;;;;;;0.70;0.60;;;;;;;;;;5041823;28;21018;-59
2022/03/31 04:47:00;;;;;;;0.83;0.60;;;;;;;;;;5041239;28;20442;-59
2022/03/31 04:49:27;;;;;;;1.47;0.67;;;;;;;;;;5041039;28;20472;-58
2022/03/31 04:52:11;;;;;;;3.13;0.80;;;;;;;;;;5042635;28;20542;-59
2022/03/31 04:54:43;;;;;;;2.03;0.80;;;;;;;;;;5025651;28;20444;-59
2022/03/31 04:57:28;;;;;;;4.20;0.70;;;;;;;;;;5042286;28;20564;-59
2022/03/31 04:59:55;;;;;;;1.90;0.73;;;;;;;;;;5044260;28;20530;-60
2022/03/31 05:02:39;;;;;;;1.40;0.50;;;;;;;;;;5044012;28;20425;-61
2022/03/31 05:05:07;;;;;;;0.90;0.57;;;;;;;;;;5042033;28;20927;-60
2022/03/31 05:07:34;;;;;;;1.33;0.50;;;;;;;;;;5044319;28;20469;-60
2022/03/31 05:10:01;;;;;;;1.07;0.60;;;;;;;;;;5044319;28;20443;-61
2022/03/31 05:12:28;;;;;;;2.13;0.73;;;;;;;;;;5043120;28;20474;-60
2022/03/31 05:14:55;;;;;;;3.93;0.93;;;;;;;;;;5044635;28;20445;-60
2022/03/31 05:17:22;;;;;;;1.77;0.80;;;;;;;;;;5043912;28;20449;-60
2022/03/31 05:19:49;;;;;;;3.37;0.80;;;;;;;;;;5044047;28;20785;-60
2022/03/31 05:22:18;;;;;;;1.27;0.70;;;;;;;;;;5043501;28;20519;-61
2022/03/31 05:24:45;;;;;;;4.53;0.70;;;;;;;;;;5042714;28;20441;-62
2022/03/31 05:27:12;;;;;;;0.50;0.50;;;;;;;;;;5038949;28;21000;-61
2022/03/31 05:29:39;;;;;;;1.27;0.60;;;;;;;;;;5042191;28;20445;-61
2022/03/31 05:32:06;;;;;;;0.87;0.60;;;;;;;;;;5041198;28;20952;-60
2022/03/31 05:34:35;;;;;;;0.60;0.40;;;;;;;;;;5038109;28;20527;-61
2022/03/31 05:37:03;;;;;;;2.07;0.67;;;;;;;;;;5042435;28;20567;-60
2022/03/31 05:39:32;;;;;;;1.33;0.70;;;;;;;;;;5042756;28;21003;-61
2022/03/31 05:41:59;;;;;;;2.93;0.90;;;;;;;;;;5042195;28;20476;-60
2022/03/31 05:44:26;;;;;;;16.00;2.10;;;;;;;;;;5042417;28;20449;-60
2022/03/31 05:46:53;;;;;;;0.70;0.60;;;;;;;;;;5041458;28;20425;-60
2022/03/31 05:49:20;;;;;;;4.53;0.77;;;;;;;;;;5041995;28;20437;-60
2022/03/31 05:51:47;;;;;;;1.10;0.80;;;;;;;;;;5041620;28;20441;-60
2022/03/31 05:54:14;;;;;;;3.83;0.60;;;;;;;;;;5043187;28;20511;-60
2022/03/31 05:56:43;;;;;;;2.50;0.80;;;;;;;;;;5043441;28;21107;-60
2022/03/31 05:59:27;;;;;;;1.00;0.70;;;;;;;;;;5046142;28;20883;-59
2022/03/31 06:01:54;;;;;;;1.57;0.70;;;;;;;;;;5049457;28;20426;-59
2022/03/31 06:04:38;;;;;;;2.50;0.80;;;;;;;;;;5049188;28;20547;-59
2022/03/31 06:07:05;;;;;;;13.17;1.57;;;;;;;;;;5049586;28;20436;-59
2022/03/31 06:09:32;;;;;;;0.97;0.70;;;;;;;;;;5049428;28;20421;-59
2022/03/31 06:11:59;;;;;;;2.10;0.80;;;;;;;;;;5045696;28;20454;-59
2022/03/31 06:14:26;;;;;;;2.60;1.10;;;;;;;;;;5029282;28;20853;-59
2022/03/31 06:16:53;;;;;;;3.27;1.03;;;;;;;;;;5029347;28;20430;-59
2022/03/31 06:19:20;;;;;;;3.10;0.83;;;;;;;;;;5028530;28;20477;-59
2022/03/31 06:21:46;;;;;;;2.60;1.00;;;;;;;;;;5029564;28;20755;-59
2022/03/31 06:24:13;;;;;;;4.70;0.80;;;;;;;;;;5029516;28;20469;-59
2022/03/31 06:26:40;;;;;;;1.90;1.03;;;;;;;;;;5029118;28;20465;-59
2022/03/31 06:29:07;;;;;;;3.53;0.93;;;;;;;;;;5029079;28;20446;-59
2022/03/31 06:31:34;;;;;;;2.27;0.70;;;;;;;;;;5028773;28;20422;-60
2022/03/31 06:34:02;;;;;;;4.13;0.80;;;;;;;;;;5029279;28;20470;-59
2022/03/31 06:36:30;;;;;;;3.30;1.20;;;;;;;;;;5029025;28;20897;-59
2022/03/31 06:39:15;;;;;;;3.30;0.63;;;;;;;;;;5032842;28;20544;-59
2022/03/31 06:41:44;;;;;;;1.80;0.83;;;;;;;;;;5048504;28;20561;-59
2022/03/31 06:44:16;;;;;;;3.10;1.03;;;;;;;;;;5048073;28;20441;-59
2022/03/31 06:46:42;;;;;;;2.67;1.00;;;;;;;;;;5046669;28;20433;-59
2022/03/31 06:49:09;;;;;;;0.97;0.63;;;;;;;;;;5049276;28;20425;-58
2022/03/31 06:51:53;;;;;;;3.17;1.03;;;;;;;;;;5048890;28;20448;-60
2022/03/31 06:54:20;;;;;;;2.60;0.90;;;;;;;;;;5048736;28;20426;-59
2022/03/31 06:56:48;;;;;;;1.60;1.00;;;;;;;;;;5048234;28;20951;-59
2022/03/31 06:59:15;;;;;;;1.37;1.20;;;;;;;;;;5031345;28;20458;-59
2022/03/31 07:01:42;;;;;;;2.33;0.90;;;;;;;;;;5048854;28;20452;-59
2022/03/31 07:04:26;;;;;;;2.20;0.90;;;;;;;;;;5050816;28;20844;-59
2022/03/31 07:06:53;;;;;;;1.03;0.80;;;;;;;;;;5050803;28;20425;-59
2022/03/31 07:09:20;;;;;;;1.83;0.90;;;;;;;;;;5049551;28;20486;-59
2022/03/31 07:11:46;;;;;;;2.43;0.90;;;;;;;;;;5048384;28;20467;-60
2022/03/31 07:14:13;;;;;;;1.93;1.00;;;;;;;;;;5048563;28;20483;-60
2022/03/31 07:16:40;;;;;;;3.40;0.90;;;;;;;;;;5047699;28;20468;-59
2022/03/31 07:19:07;;;;;;;1.67;1.00;;;;;;;;;;5048606;28;21250;-60
2022/03/31 07:21:34;;;;;;;2.70;0.97;;;;;;;;;;5048419;28;20516;-59
2022/03/31 07:24:01;;;;;;;3.00;0.90;;;;;;;;;;5043070;28;21106;-61
2022/03/31 07:26:29;;;;;;;1.00;0.70;;;;;;;;;;5038102;28;20494;-61
2022/03/31 07:28:56;;;;;;;3.23;0.97;;;;;;;;;;5040152;28;20509;-60
2022/03/31 07:31:24;;;;;;;1.53;0.83;;;;;;;;;;5036843;28;21285;-60
2022/03/31 07:33:51;;;;;;;3.40;0.90;;;;;;;;;;5041071;28;20449;-60
2022/03/31 07:36:18;;;;;;;1.63;0.90;;;;;;;;;;5041838;28;20438;-60
2022/03/31 07:38:45;;;;;;;1.33;0.80;;;;;;;;;;5037580;28;20575;-60
2022/03/31 07:41:13;;;;;;;2.43;0.90;;;;;;;;;;5038812;28;20793;-61
2022/03/31 07:43:40;;;;;;;2.20;0.90;;;;;;;;;;5041234;28;20556;-60
2022/03/31 07:46:07;;;;;;;1.23;0.90;;;;;;;;;;5041052;28;20659;-61
2022/03/31 07:48:34;;;;;;;1.40;0.87;;;;;;;;;;5042262;28;20210;-64
2022/03/31 07:51:01;;;;;;;1.63;0.97;;;;;;;;;;5039929;28;20426;-60
2022/03/31 07:53:32;;;;;;;2.63;1.03;;;;;;;;;;5040789;28;20539;-59
2022/03/31 07:56:03;;;;;;;1.77;0.87;;;;;;;;;;5038327;28;20433;-61
2022/03/31 07:58:30;;;;;;;2.83;1.37;;;;;;;;;;5040860;28;20489;-60
2022/03/31 08:00:57;;;;;;;4.50;1.10;;;;;;;;;;5042324;28;20441;-60
2022/03/31 08:03:24;;;;;;;1.90;0.87;;;;;;;;;;5040564;28;20457;-60
2022/03/31 08:05:51;;;;;;;3.93;0.90;;;;;;;;;;5038994;28;20540;-61
2022/03/31 08:08:19;;;;;;;2.23;1.00;;;;;;;;;;5039788;28;21285;-61
2022/03/31 08:10:46;;;;;;;1.33;1.10;;;;;;;;;;5041988;28;20437;-60
2022/03/31 08:13:27;;;;;;;2.60;1.00;;;;;;;;;;5036831;28;20241;-61
2022/03/31 08:15:54;;;;;;;2.10;0.97;;;;;;;;;;5041946;28;20190;-62
2022/03/31 08:18:39;;;;;;;1.93;1.00;;;;;;;;;;5039535;28;20499;-60
2022/03/31 08:21:05;;;;;;;3.20;0.90;;;;;;;;;;5040064;28;20468;-60
2022/03/31 08:23:33;;;;;;;3.40;1.10;;;;;;;;;;5040805;28;20449;-61
2022/03/31 08:26:00;;;;;;;1.70;1.00;;;;;;;;;;5029978;28;20593;-60
2022/03/31 08:28:31;;;;;;;2.57;1.30;;;;;;;;;;5037623;28;20453;-61
2022/03/31 08:30:58;;;;;;;2.57;1.10;;;;;;;;;;5039472;28;20532;-63
2022/03/31 08:33:25;;;;;;;1.30;1.00;;;;;;;;;;5040374;28;20532;-60
2022/03/31 08:35:52;;;;;;;3.43;1.17;;;;;;;;;;5038612;28;20735;-60
2022/03/31 08:38:19;;;;;;;2.93;1.93;;;;;;;;;;5039052;28;20509;-60
2022/03/31 08:40:47;;;;;;;2.00;1.10;;;;;;;;;;5040686;28;21201;-63
2022/03/31 08:43:14;;;;;;;2.20;1.10;;;;;;;;;;5042591;28;20473;-62
2022/03/31 08:45:41;;;;;;;2.37;1.40;;;;;;;;;;5044494;28;20731;-60
2022/03/31 08:48:08;;;;;;;3.93;1.30;;;;;;;;;;5039196;28;20429;-61
2022/03/31 08:50:36;;;;;;;1.80;1.20;;;;;;;;;;5042635;28;20449;-60
2022/03/31 08:53:03;;;;;;;3.00;1.60;;;;;;;;;;5043962;28;20426;-62
2022/03/31 08:55:30;;;;;;;3.23;1.70;;;;;;;;;;5042402;28;20516;-63
2022/03/31 08:57:56;;;;;;;3.67;1.80;;;;;;;;;;5043297;28;20437;-61
2022/03/31 09:00:24;;;;;;;3.43;1.73;;;;;;;;;;5042246;28;20488;-62
2022/03/31 09:03:00;;;;;;;3.30;1.60;;;;;;;;;;5043454;28;21014;-62
2022/03/31 09:05:28;;;;;;;2.43;1.30;;;;;;;;;;5043858;28;20240;-61
2022/03/31 09:08:00;;;;;;;3.73;1.43;;;;;;;;;;5040785;28;21287;-61
2022/03/31 09:10:28;;;;;;;3.10;1.17;;;;;;;;;;5044067;28;20824;-60
2022/03/31 09:12:55;;;;;;;3.60;1.40;;;;;;;;;;5043577;28;20448;-60
2022/03/31 09:15:30;;;;;;;1.77;1.20;;;;;;;;;;5045600;28;20440;-59
2022/03/31 09:17:58;;;;;;;1.80;1.30;;;;;;;;;;5043006;28;21067;-60
2022/03/31 09:20:38;;;;;;;3.17;1.30;;;;;;;;;;5044615;28;20980;-53
2022/03/31 09:23:24;;;;;;;1.80;1.37;;;;;;;;;;5044127;28;20433;-55
2022/03/31 09:25:51;;;;;;;1.87;1.37;;;;;;;;;;5035211;28;20592;-59
2022/03/31 09:28:18;;;;;;;2.97;1.80;;;;;;;;;;5044818;28;20994;-60
2022/03/31 09:30:48;;;;;;;4.70;1.57;;;;;;;;;;5044698;28;20437;-59
2022/03/31 09:33:25;;;;;;;3.13;1.40;;;;;;;;;;5044313;28;20441;-61
2022/03/31 09:35:59;;;;;;;2.20;1.40;;;;;;;;;;5043270;28;20433;-61
2022/03/31 09:38:26;;;;;;;4.97;1.83;;;;;;;;;;5043863;28;20449;-60
2022/03/31 09:40:53;;;;;;;1.90;1.50;;;;;;;;;;5043531;28;20498;-61
2022/03/31 09:43:20;;;;;;;5.03;1.77;;;;;;;;;;5043875;28;20468;-61
2022/03/31 09:45:48;;;;;;;4.03;2.10;;;;;;;;;;5044099;28;20975;-60
2022/03/31 09:48:19;;;;;;;2.60;1.63;;;;;;;;;;5040157;28;20449;-60
2022/03/31 09:50:46;;;;;;;2.37;1.60;;;;;;;;;;5038334;28;20849;-62
2022/03/31 09:53:13;;;;;;;4.07;1.70;;;;;;;;;;5042888;28;20459;-61
2022/03/31 09:55:44;;;;;;;2.23;1.60;;;;;;;;;;5043103;28;20540;-63
2022/03/31 09:58:17;;;;;;;4.43;1.87;;;;;;;;;;5039856;28;20429;-60
2022/03/31 10:00:46;;;;;;;4.70;2.00;;;;;;;;;;5042662;28;20452;-60
2022/03/31 10:03:13;;;;;;;4.27;2.43;;;;;;;;;;5041531;28;20472;-60
2022/03/31 10:05:42;;;;;;;4.60;2.37;;;;;;;;;;5042987;28;20202;-61
2022/03/31 10:08:12;;;;;;;4.60;2.00;;;;;;;;;;5040440;28;20533;-60
2022/03/31 10:10:39;;;;;;;6.00;2.20;;;;;;;;;;5041415;28;20277;-61
2022/03/31 10:13:09;;;;;;;4.80;2.20;;;;;;;;;;5040985;28;20487;-61
2022/03/31 10:15:37;;;;;;;5.50;2.50;;;;;;;;;;5042737;28;20211;-62
2022/03/31 10:18:04;;;;;;;3.50;2.40;;;;;;;;;;5038989;28;20205;-63
2022/03/31 10:20:31;;;;;;;3.77;2.13;;;;;;;;;;5041347;28;20485;-62
2022/03/31 10:25:45;;;;;;;2.80;1.90;;;;;;;;;;5030915;28;20491;-62
2022/03/31 10:28:30;;;;;;;6.27;2.53;;;;;;;;;;5040744;28;20483;-61
2022/03/31 10:30:58;;;;;;;5.53;2.60;;;;;;;;;;5041362;28;20473;-61
2022/03/31 10:33:29;;;;;;;4.03;1.93;;;;;;;;;;5040145;28;20441;-61
2022/03/31 10:36:02;;;;;;;5.37;2.30;;;;;;;;;;5040620;28;20465;-61
2022/03/31 10:38:32;;;;;;;4.30;2.17;;;;;;;;;;5040805;28;20842;-61
2022/03/31 10:41:00;;;;;;;4.50;2.10;;;;;;;;;;5041449;28;20445;-63
2022/03/31 10:43:32;;;;;;;7.93;3.07;;;;;;;;;;5039974;28;20967;-61
2022/03/31 10:46:01;;;;;;;5.53;2.73;;;;;;;;;;5039985;28;20495;-61
2022/03/31 10:48:34;;;;;;;5.57;2.20;;;;;;;;;;5039856;28;20444;-60
2022/03/31 10:51:19;;;;;;;4.57;2.30;;;;;;;;;;5038248;28;20589;-59
2022/03/31 10:53:48;;;;;;;3.00;2.20;;;;;;;;;;5039342;28;20518;-60
2022/03/31 10:56:18;;;;;;;5.07;2.30;;;;;;;;;;5036936;28;20198;-62
2022/03/31 10:58:45;;;;;;;6.43;2.60;;;;;;;;;;5039880;28;20668;-60
2022/03/31 11:01:12;;;;;;;6.57;2.27;;;;;;;;;;5041104;28;20183;-62
2022/03/31 11:03:39;;;;;;;2.17;1.67;;;;;;;;;;5040807;28;20747;-61
2022/03/31 11:06:10;;;;;;;5.47;2.07;;;;;;;;;;5038377;28;20655;-60
2022/03/31 11:08:47;;;;;;;8.67;2.13;;;;;;;;;;5038369;28;20210;-60
2022/03/31 11:11:34;;;;;;;4.30;2.23;;;;;;;;;;5040731;28;20220;-62
2022/03/31 11:14:08;;;;;;;20.10;14.67;;;;;;;;;;5041258;28;21300;-61
2022/03/31 11:16:38;;;;;;;5.40;2.40;;;;;;;;;;5039939;28;20445;-61
2022/03/31 11:19:07;;;;;;;3.47;2.17;;;;;;;;;;5040928;28;20507;-62
2022/03/31 11:21:34;;;;;;;4.27;2.27;;;;;;;;;;5040570;28;20203;-62
2022/03/31 11:24:01;;;;;;;3.90;2.10;;;;;;;;;;5040206;28;21032;-61
2022/03/31 11:26:29;;;;;;;3.33;1.97;;;;;;;;;;5031053;28;20229;-61
2022/03/31 11:28:56;;;;;;;3.67;2.30;;;;;;;;;;5040426;28;20194;-62
2022/03/31 11:31:46;;;;;;;5.27;2.70;;;;;;;;;;5039269;28;20797;-62
2022/03/31 11:34:17;;;;;;;4.80;2.10;;;;;;;;;;5042298;28;20241;-62
2022/03/31 11:37:02;;;;;;;4.67;3.40;;;;;;;;;;5042181;28;20932;-61
2022/03/31 11:39:30;;;;;;;5.43;2.90;;;;;;;;;;5040610;28;20211;-62
2022/03/31 11:41:58;;;;;;;4.77;2.43;;;;;;;;;;5041397;28;20449;-62
2022/03/31 11:44:26;;;;;;;5.73;2.77;;;;;;;;;;5037157;28;21213;-62
2022/03/31 11:46:53;;;;;;;12.63;5.90;;;;;;;;;;5024132;28;20198;-62
2022/03/31 11:49:21;;;;;;;5.07;3.00;;;;;;;;;;5040736;28;20532;-62
2022/03/31 11:51:48;;;;;;;4.30;2.30;;;;;;;;;;5040625;28;21140;-63
2022/03/31 11:54:15;;;;;;;4.57;2.67;;;;;;;;;;5041252;28;20518;-62
2022/03/31 11:56:42;;;;;;;4.73;2.80;;;;;;;;;;5041076;28;20449;-62
2022/03/31 11:59:09;;;;;;;8.47;4.40;;;;;;;;;;5041138;28;20965;-62
2022/03/31 12:01:43;;;;;;;3.90;2.73;;;;;;;;;;5041613;28;20839;-62
2022/03/31 12:04:19;;;;;;;4.00;2.37;;;;;;;;;;5040949;28;20475;-62
2022/03/31 12:06:47;;;;;;;4.40;2.83;;;;;;;;;;5039892;28;20843;-62
2022/03/31 12:09:33;;;;;;;6.33;2.50;;;;;;;;;;5040145;28;20179;-69
2022/03/31 12:12:00;;;;;;;5.47;2.93;;;;;;;;;;5040591;28;20437;-64
2022/03/31 12:14:54;;;;;;;2.37;1.70;;;;;;;;;;5040675;28;20437;-65
2022/03/31 12:17:21;;;;;;;2.63;1.87;;;;;;;;;;5044125;28;20198;-64
2022/03/31 12:19:48;;;;;;;3.90;2.80;;;;;;;;;;5044139;28;20218;-64
2022/03/31 12:22:15;;;;;;;4.37;2.43;;;;;;;;;;5043392;28;20441;-65
2022/03/31 12:24:49;;;;;;;12.07;5.23;;;;;;;;;;5044112;28;20201;-67
2022/03/31 12:27:35;;;;;;;10.33;5.13;;;;;;;;;;5042487;28;20179;-65
2022/03/31 12:30:04;;;;;;;5.73;2.50;;;;;;;;;;5043969;28;20453;-65
2022/03/31 12:32:33;;;;;;;16.90;6.77;;;;;;;;;;5034027;28;20457;-66
2022/03/31 12:35:01;;;;;;;10.83;5.37;;;;;;;;;;5043520;28;20445;-66
2022/03/31 12:37:37;;;;;;;5.57;3.10;;;;;;;;;;5041864;28;20457;-67
2022/03/31 12:40:08;;;;;;;5.00;2.70;;;;;;;;;;5043045;28;20563;-69
2022/03/31 12:42:36;;;;;;;3.57;2.40;;;;;;;;;;5027167;28;20441;-65
2022/03/31 12:45:13;;;;;;;6.27;3.67;;;;;;;;;;5052712;28;20433;-64
2022/03/31 12:47:41;;;;;;;4.83;2.10;;;;;;;;;;5052944;28;20441;-63
2022/03/31 12:50:18;;;;;;;6.50;3.40;;;;;;;;;;5037461;28;20433;-65
2022/03/31 12:53:01;;;;;;;5.40;2.33;;;;;;;;;;5045652;28;20472;-63
2022/03/31 12:55:31;;;;;;;6.13;2.40;;;;;;;;;;5049189;28;20451;-63
2022/03/31 12:57:59;;;;;;;4.13;2.53;;;;;;;;;;5047292;28;20944;-63
2022/03/31 13:00:26;;;;;;;5.00;2.77;;;;;;;;;;5047313;28;20465;-63
2022/03/31 13:02:56;;;;;;;4.20;2.53;;;;;;;;;;5042485;28;20470;-63
2022/03/31 13:05:23;;;;;;;5.37;2.80;;;;;;;;;;5046986;28;20480;-63
2022/03/31 13:07:52;;;;;;;4.97;3.33;;;;;;;;;;5048294;28;20448;-64
2022/03/31 13:10:19;;;;;;;5.23;2.50;;;;;;;;;;5048166;28;20476;-63
2022/03/31 13:12:48;;;;;;;3.07;2.20;;;;;;;;;;5047513;28;20823;-61
2022/03/31 13:15:16;;;;;;;3.67;1.83;;;;;;;;;;5048548;28;20750;-62
2022/03/31 13:17:45;;;;;;;4.07;1.87;;;;;;;;;;5047710;28;20447;-62
2022/03/31 13:20:19;;;;;;;4.97;3.17;;;;;;;;;;5047107;28;20468;-63
2022/03/31 13:22:47;;;;;;;3.67;1.80;;;;;;;;;;5046987;28;20432;-63
2022/03/31 13:25:13;;;;;;;5.07;2.77;;;;;;;;;;5048249;28;20528;-63
2022/03/31 13:27:40;;;;;;;5.53;2.47;;;;;;;;;;5046786;28;20437;-62
2022/03/31 13:30:10;;;;;;;4.97;2.63;;;;;;;;;;5047108;28;20504;-62
2022/03/31 13:32:40;;;;;;;5.33;2.40;;;;;;;;;;5047315;28;20441;-62
2022/03/31 13:35:07;;;;;;;3.67;2.00;;;;;;;;;;5047458;28;20762;-66
2022/03/31 13:37:34;;;;;;;4.40;2.13;;;;;;;;;;5048598;28;20433;-63
2022/03/31 13:40:06;;;;;;;3.47;2.17;;;;;;;;;;5045735;28;20508;-63
2022/03/31 13:42:35;;;;;;;3.77;1.67;;;;;;;;;;5047434;28;20443;-64
2022/03/31 13:45:02;;;;;;;2.83;1.67;;;;;;;;;;5047540;28;20526;-64
2022/03/31 13:47:29;;;;;;;2.20;1.50;;;;;;;;;;5047339;28;20448;-63
2022/03/31 13:49:56;;;;;;;7.27;2.90;;;;;;;;;;5044449;28;20437;-65
2022/03/31 13:52:23;;;;;;;5.67;2.23;;;;;;;;;;5041312;28;20467;-63
2022/03/31 13:54:50;;;;;;;6.00;1.80;;;;;;;;;;5042849;28;20443;-63
2022/03/31 14:02:48;;;;;;;2.40;1.70;;;;;;;;;;5035749;28;20459;-64
2022/03/31 14:05:15;;;;;;;4.30;1.90;;;;;;;;;;5040783;28;20460;-69
2022/03/31 14:07:43;;;;;;;2.70;1.53;;;;;;;;;;5047301;28;21071;-63
2022/03/31 14:10:12;;;;;;;5.73;1.67;;;;;;;;;;5049555;28;20480;-63
2022/03/31 14:12:40;;;;;;;2.87;1.60;;;;;;;;;;5049419;28;20494;-63
2022/03/31 14:15:06;;;;;;;6.33;2.00;;;;;;;;;;5049007;28;20429;-63
2022/03/31 14:17:33;;;;;;;1.97;1.40;;;;;;;;;;5049121;28;20429;-63
2022/03/31 14:20:18;;;;;;;5.67;1.77;;;;;;;;;;5048929;28;20470;-63
2022/03/31 14:22:44;;;;;;;2.90;1.47;;;;;;;;;;5048944;28;20423;-63
2022/03/31 14:25:14;;;;;;;2.43;1.40;;;;;;;;;;5049611;28;20443;-63
2022/03/31 14:27:41;;;;;;;4.03;1.57;;;;;;;;;;5048735;28;20530;-63
2022/03/31 14:30:09;;;;;;;3.67;1.57;;;;;;;;;;5049033;28;20499;-63
2022/03/31 14:32:36;;;;;;;2.33;1.20;;;;;;;;;;5048809;28;20432;-63
2022/03/31 14:35:03;;;;;;;2.17;1.40;;;;;;;;;;5048338;28;20444;-64
2022/03/31 14:37:30;;;;;;;2.37;1.43;;;;;;;;;;5049215;28;20444;-63
2022/03/31 14:39:56;;;;;;;3.30;1.57;;;;;;;;;;5048528;28;20457;-63
2022/03/31 14:42:23;;;;;;;2.93;1.40;;;;;;;;;;5048303;28;20916;-63
2022/03/31 14:44:50;;;;;;;6.00;2.07;;;;;;;;;;5048746;28;20440;-64
2022/03/31 14:47:16;;;;;;;3.10;1.30;;;;;;;;;;5048641;28;20803;-63
2022/03/31 14:49:47;;;;;;;3.17;1.50;;;;;;;;;;5047063;28;20440;-63
2022/03/31 14:52:14;;;;;;;3.10;1.40;;;;;;;;;;5048897;28;20444;-63
2022/03/31 14:54:41;;;;;;;2.30;1.40;;;;;;;;;;5048271;28;20460;-63
2022/03/31 14:57:08;;;;;;;5.87;1.43;;;;;;;;;;5048535;28;20429;-63
2022/03/31 14:59:34;;;;;;;2.50;1.10;;;;;;;;;;5048205;28;20516;-63
2022/03/31 15:02:06;;;;;;;3.10;1.33;;;;;;;;;;5048121;28;20432;-63
2022/03/31 15:04:54;;;;;;;2.03;1.40;;;;;;;;;;5049618;28;20476;-63
2022/03/31 15:07:25;;;;;;;1.43;1.00;;;;;;;;;;5041003;28;20448;-59
2022/03/31 15:15:25;;;;;;;1.70;1.20;;;;;;;;;;5038174;28;20533;-59
2022/03/31 15:17:51;;;;;;;5.13;1.20;;;;;;;;;;5027270;28;20430;-59
2022/03/31 15:20:18;;;;;;;1.27;1.03;;;;;;;;;;5040256;28;20476;-59
2022/03/31 15:22:45;;;;;;;3.60;1.30;;;;;;;;;;5035291;28;20510;-59
2022/03/31 15:25:12;;;;;;;4.00;1.07;;;;;;;;;;5042354;28;20539;-59
2022/03/31 15:27:38;;;;;;;2.50;1.10;;;;;;;;;;5033769;28;20430;-61
2022/03/31 15:30:06;;;;;;;3.73;1.03;;;;;;;;;;5027710;28;20760;-59
2022/03/31 15:32:50;;;;;;;1.10;0.90;;;;;;;;;;5029278;28;20426;-59
2022/03/31 15:35:16;;;;;;;4.20;1.10;;;;;;;;;;5041746;28;20443;-59
2022/03/31 15:38:01;;;;;;;2.40;1.07;;;;;;;;;;5038719;28;20430;-60
2022/03/31 15:40:27;;;;;;;4.40;1.07;;;;;;;;;;5041981;28;20470;-59
2022/03/31 15:43:12;;;;;;;1.80;0.90;;;;;;;;;;5033188;28;20430;-60
2022/03/31 15:45:38;;;;;;;1.57;0.77;;;;;;;;;;5029270;28;20434;-59
2022/03/31 15:48:23;;;;;;;1.10;0.80;;;;;;;;;;5028504;28;20432;-59
2022/03/31 15:50:49;;;;;;;2.43;1.00;;;;;;;;;;5031011;28;20422;-59
2022/03/31 15:53:17;;;;;;;1.77;0.90;;;;;;;;;;5032185;28;20438;-59
2022/03/31 15:55:44;;;;;;;3.17;1.50;;;;;;;;;;5031520;28;20487;-60
2022/03/31 15:58:11;;;;;;;1.70;1.03;;;;;;;;;;5033292;28;20930;-58
2022/03/31 16:00:38;;;;;;;0.90;0.67;;;;;;;;;;5031752;28;21064;-59